Ojai, California
Current Conditions -  °F | °C
As of 1:51 PM on Monday 24 Nov 2014 (Local Time) from KOXR Reporting Station
Clear Clear  
Wind Chill: 80°   Ceiling: Unl
Heat Index: 80°   Visibility: 10mi
Dew Point: 13°   Wind: 21mph
Humidity: 8%   Direction: 90°E
Pressure: 30.19"   Gusts: 30mph
Location:  34.44°N, 119.24°W
Report Text: KOXR 242151Z 09018G26KT 10SM CLR 27/M11 A3019 RMK AO2 PK WND 08030/2130 SLP222 T02671106
Loading
Personal Weather Stations






























Interactive Weather Map New forecast layout! Learn more

10-Day Weather Forecast

Advertisements
Track Severe Weather on mobile